sensor_id;sensor_type;location;lat;lon;timestamp;P1;durP1;ratioP1;P2;durP2;ratioP2
6207;SDS011;3137;51.550;7.060;2023-05-17T00:01:41;3.07;;;3.07;;
6207;SDS011;3137;51.550;7.060;2023-05-17T00:04:08;4.20;;;4.00;;
6207;SDS011;3137;51.550;7.060;2023-05-17T00:06:34;3.53;;;3.43;;
6207;SDS011;3137;51.550;7.060;2023-05-17T00:09:01;3.10;;;3.10;;
6207;SDS011;3137;51.550;7.060;2023-05-17T00:11:28;4.60;;;4.43;;
6207;SDS011;3137;51.550;7.060;2023-05-17T00:13:54;3.90;;;3.80;;
6207;SDS011;3137;51.550;7.060;2023-05-17T00:16:21;3.97;;;3.67;;
6207;SDS011;3137;51.550;7.060;2023-05-17T00:18:47;4.43;;;4.37;;
6207;SDS011;3137;51.550;7.060;2023-05-17T00:21:14;4.00;;;3.90;;
6207;SDS011;3137;51.550;7.060;2023-05-17T00:23:40;4.73;;;4.37;;
6207;SDS011;3137;51.550;7.060;2023-05-17T00:26:06;4.03;;;3.83;;
6207;SDS011;3137;51.550;7.060;2023-05-17T00:28:33;3.97;;;3.77;;
6207;SDS011;3137;51.550;7.060;2023-05-17T00:30:59;3.40;;;3.30;;
6207;SDS011;3137;51.550;7.060;2023-05-17T00:33:28;3.50;;;3.50;;
6207;SDS011;3137;51.550;7.060;2023-05-17T00:35:54;4.27;;;4.17;;
6207;SDS011;3137;51.550;7.060;2023-05-17T00:38:21;5.23;;;3.90;;
6207;SDS011;3137;51.550;7.060;2023-05-17T00:40:48;3.97;;;3.97;;
6207;SDS011;3137;51.550;7.060;2023-05-17T00:43:15;4.20;;;3.90;;
6207;SDS011;3137;51.550;7.060;2023-05-17T00:45:41;3.60;;;3.60;;
6207;SDS011;3137;51.550;7.060;2023-05-17T00:48:08;4.47;;;4.30;;
6207;SDS011;3137;51.550;7.060;2023-05-17T00:50:34;4.17;;;4.17;;
6207;SDS011;3137;51.550;7.060;2023-05-17T00:53:01;3.57;;;3.57;;
6207;SDS011;3137;51.550;7.060;2023-05-17T00:55:28;4.50;;;4.23;;
6207;SDS011;3137;51.550;7.060;2023-05-17T00:57:55;4.53;;;4.33;;
6207;SDS011;3137;51.550;7.060;2023-05-17T01:00:22;4.37;;;4.27;;
6207;SDS011;3137;51.550;7.060;2023-05-17T01:02:49;4.70;;;4.40;;
6207;SDS011;3137;51.550;7.060;2023-05-17T01:05:16;4.43;;;4.33;;
6207;SDS011;3137;51.550;7.060;2023-05-17T01:07:42;5.20;;;4.83;;
6207;SDS011;3137;51.550;7.060;2023-05-17T01:10:09;5.00;;;4.57;;
6207;SDS011;3137;51.550;7.060;2023-05-17T01:12:53;5.00;;;4.70;;
6207;SDS011;3137;51.550;7.060;2023-05-17T01:15:29;4.63;;;4.33;;
6207;SDS011;3137;51.550;7.060;2023-05-17T01:18:18;5.20;;;4.73;;
6207;SDS011;3137;51.550;7.060;2023-05-17T01:20:49;6.10;;;5.57;;
6207;SDS011;3137;51.550;7.060;2023-05-17T01:26:13;5.27;;;5.17;;
6207;SDS011;3137;51.550;7.060;2023-05-17T01:28:43;5.73;;;5.60;;
6207;SDS011;3137;51.550;7.060;2023-05-17T01:31:11;6.10;;;5.60;;
6207;SDS011;3137;51.550;7.060;2023-05-17T01:33:39;6.13;;;5.57;;
6207;SDS011;3137;51.550;7.060;2023-05-17T01:36:06;7.50;;;6.80;;
6207;SDS011;3137;51.550;7.060;2023-05-17T01:38:33;5.23;;;5.20;;
6207;SDS011;3137;51.550;7.060;2023-05-17T01:41:12;5.93;;;5.67;;
6207;SDS011;3137;51.550;7.060;2023-05-17T01:43:45;5.73;;;5.47;;
6207;SDS011;3137;51.550;7.060;2023-05-17T01:49:02;5.53;;;5.23;;
6207;SDS011;3137;51.550;7.060;2023-05-17T01:51:35;6.40;;;6.20;;
6207;SDS011;3137;51.550;7.060;2023-05-17T01:54:09;6.00;;;5.80;;
6207;SDS011;3137;51.550;7.060;2023-05-17T01:56:40;5.37;;;5.20;;
6207;SDS011;3137;51.550;7.060;2023-05-17T01:59:09;9.50;;;5.73;;
6207;SDS011;3137;51.550;7.060;2023-05-17T02:01:40;4.87;;;4.80;;
6207;SDS011;3137;51.550;7.060;2023-05-17T02:04:08;5.30;;;5.10;;
6207;SDS011;3137;51.550;7.060;2023-05-17T02:06:35;5.20;;;5.10;;
6207;SDS011;3137;51.550;7.060;2023-05-17T02:09:02;7.93;;;7.30;;
6207;SDS011;3137;51.550;7.060;2023-05-17T02:11:28;7.20;;;6.57;;
6207;SDS011;3137;51.550;7.060;2023-05-17T02:13:55;5.83;;;5.63;;
6207;SDS011;3137;51.550;7.060;2023-05-17T02:16:24;6.87;;;6.47;;
6207;SDS011;3137;51.550;7.060;2023-05-17T02:18:50;6.10;;;5.87;;
6207;SDS011;3137;51.550;7.060;2023-05-17T02:21:17;9.00;;;7.50;;
6207;SDS011;3137;51.550;7.060;2023-05-17T02:23:43;11.20;;;7.20;;
6207;SDS011;3137;51.550;7.060;2023-05-17T02:26:10;7.80;;;7.20;;
6207;SDS011;3137;51.550;7.060;2023-05-17T02:28:36;8.37;;;7.73;;
6207;SDS011;3137;51.550;7.060;2023-05-17T02:31:02;7.23;;;6.60;;
6207;SDS011;3137;51.550;7.060;2023-05-17T02:33:29;9.63;;;6.93;;
6207;SDS011;3137;51.550;7.060;2023-05-17T02:35:55;8.53;;;7.10;;
6207;SDS011;3137;51.550;7.060;2023-05-17T02:38:22;10.57;;;7.23;;
6207;SDS011;3137;51.550;7.060;2023-05-17T02:40:49;8.87;;;7.83;;
6207;SDS011;3137;51.550;7.060;2023-05-17T02:43:16;8.17;;;7.57;;
6207;SDS011;3137;51.550;7.060;2023-05-17T02:45:42;8.43;;;7.53;;
6207;SDS011;3137;51.550;7.060;2023-05-17T02:48:11;8.20;;;7.63;;
6207;SDS011;3137;51.550;7.060;2023-05-17T02:50:38;11.10;;;7.37;;
6207;SDS011;3137;51.550;7.060;2023-05-17T02:53:04;7.90;;;7.13;;
6207;SDS011;3137;51.550;7.060;2023-05-17T02:55:31;7.63;;;7.00;;
6207;SDS011;3137;51.550;7.060;2023-05-17T02:57:57;6.70;;;6.27;;
6207;SDS011;3137;51.550;7.060;2023-05-17T03:00:24;7.33;;;5.60;;
6207;SDS011;3137;51.550;7.060;2023-05-17T03:02:51;7.17;;;6.40;;
6207;SDS011;3137;51.550;7.060;2023-05-17T03:05:17;14.10;;;7.80;;
6207;SDS011;3137;51.550;7.060;2023-05-17T03:07:47;10.87;;;7.80;;
6207;SDS011;3137;51.550;7.060;2023-05-17T03:10:14;8.43;;;7.70;;
6207;SDS011;3137;51.550;7.060;2023-05-17T03:12:43;8.57;;;7.87;;
6207;SDS011;3137;51.550;7.060;2023-05-17T03:15:10;8.30;;;7.50;;
6207;SDS011;3137;51.550;7.060;2023-05-17T03:17:37;7.60;;;7.10;;
6207;SDS011;3137;51.550;7.060;2023-05-17T03:20:04;7.30;;;6.87;;
6207;SDS011;3137;51.550;7.060;2023-05-17T03:22:33;10.43;;;7.67;;
6207;SDS011;3137;51.550;7.060;2023-05-17T03:25:00;12.97;;;7.47;;
6207;SDS011;3137;51.550;7.060;2023-05-17T03:27:27;10.43;;;7.93;;
6207;SDS011;3137;51.550;7.060;2023-05-17T03:29:56;8.27;;;7.80;;
6207;SDS011;3137;51.550;7.060;2023-05-17T03:32:23;11.13;;;7.10;;
6207;SDS011;3137;51.550;7.060;2023-05-17T03:34:50;10.77;;;7.23;;
6207;SDS011;3137;51.550;7.060;2023-05-17T03:37:16;8.87;;;7.73;;
6207;SDS011;3137;51.550;7.060;2023-05-17T03:39:44;10.53;;;8.00;;
6207;SDS011;3137;51.550;7.060;2023-05-17T03:42:10;7.50;;;7.10;;
6207;SDS011;3137;51.550;7.060;2023-05-17T03:44:36;8.87;;;7.07;;
6207;SDS011;3137;51.550;7.060;2023-05-17T03:47:03;7.73;;;7.20;;
6207;SDS011;3137;51.550;7.060;2023-05-17T03:49:30;8.40;;;7.73;;
6207;SDS011;3137;51.550;7.060;2023-05-17T03:51:56;12.03;;;7.23;;
6207;SDS011;3137;51.550;7.060;2023-05-17T03:54:23;8.77;;;7.67;;
6207;SDS011;3137;51.550;7.060;2023-05-17T03:56:49;12.57;;;7.03;;
6207;SDS011;3137;51.550;7.060;2023-05-17T03:59:16;13.63;;;7.63;;
6207;SDS011;3137;51.550;7.060;2023-05-17T04:01:43;14.90;;;8.60;;
6207;SDS011;3137;51.550;7.060;2023-05-17T04:04:12;9.00;;;7.67;;
6207;SDS011;3137;51.550;7.060;2023-05-17T04:06:39;12.60;;;7.77;;
6207;SDS011;3137;51.550;7.060;2023-05-17T04:09:06;17.17;;;8.43;;
6207;SDS011;3137;51.550;7.060;2023-05-17T04:11:34;11.60;;;7.67;;
6207;SDS011;3137;51.550;7.060;2023-05-17T04:14:01;16.63;;;7.50;;
6207;SDS011;3137;51.550;7.060;2023-05-17T04:16:28;15.67;;;8.43;;
6207;SDS011;3137;51.550;7.060;2023-05-17T04:18:54;17.30;;;7.93;;
6207;SDS011;3137;51.550;7.060;2023-05-17T04:21:21;15.67;;;8.03;;
6207;SDS011;3137;51.550;7.060;2023-05-17T04:23:49;10.73;;;7.90;;
6207;SDS011;3137;51.550;7.060;2023-05-17T04:26:15;20.17;;;8.83;;
6207;SDS011;3137;51.550;7.060;2023-05-17T04:28:41;12.83;;;9.13;;
6207;SDS011;3137;51.550;7.060;2023-05-17T04:31:08;12.03;;;8.73;;
6207;SDS011;3137;51.550;7.060;2023-05-17T04:33:36;11.53;;;8.07;;
6207;SDS011;3137;51.550;7.060;2023-05-17T04:36:04;9.70;;;8.60;;
6207;SDS011;3137;51.550;7.060;2023-05-17T04:38:31;19.60;;;8.73;;
6207;SDS011;3137;51.550;7.060;2023-05-17T04:41:02;11.23;;;8.10;;
6207;SDS011;3137;51.550;7.060;2023-05-17T04:43:31;12.77;;;7.77;;
6207;SDS011;3137;51.550;7.060;2023-05-17T04:45:59;14.23;;;8.37;;
6207;SDS011;3137;51.550;7.060;2023-05-17T04:48:29;17.40;;;8.70;;
6207;SDS011;3137;51.550;7.060;2023-05-17T04:51:00;12.47;;;8.20;;
6207;SDS011;3137;51.550;7.060;2023-05-17T04:53:29;17.43;;;8.37;;
6207;SDS011;3137;51.550;7.060;2023-05-17T04:55:57;15.93;;;8.53;;
6207;SDS011;3137;51.550;7.060;2023-05-17T04:58:25;16.43;;;8.07;;
6207;SDS011;3137;51.550;7.060;2023-05-17T05:00:55;18.07;;;9.13;;
6207;SDS011;3137;51.550;7.060;2023-05-17T05:03:22;15.97;;;9.00;;
6207;SDS011;3137;51.550;7.060;2023-05-17T05:05:49;20.83;;;8.33;;
6207;SDS011;3137;51.550;7.060;2023-05-17T05:08:16;8.87;;;8.03;;
6207;SDS011;3137;51.550;7.060;2023-05-17T05:10:44;22.90;;;7.57;;
6207;SDS011;3137;51.550;7.060;2023-05-17T05:13:12;17.37;;;8.30;;
6207;SDS011;3137;51.550;7.060;2023-05-17T05:15:40;13.93;;;9.53;;
6207;SDS011;3137;51.550;7.060;2023-05-17T05:18:06;17.17;;;8.50;;
6207;SDS011;3137;51.550;7.060;2023-05-17T05:20:33;16.30;;;8.33;;
6207;SDS011;3137;51.550;7.060;2023-05-17T05:23:02;19.80;;;9.57;;
6207;SDS011;3137;51.550;7.060;2023-05-17T05:25:31;16.50;;;8.57;;
6207;SDS011;3137;51.550;7.060;2023-05-17T05:27:58;21.60;;;8.60;;
6207;SDS011;3137;51.550;7.060;2023-05-17T05:30:25;12.90;;;8.67;;
6207;SDS011;3137;51.550;7.060;2023-05-17T05:32:54;14.80;;;8.20;;
6207;SDS011;3137;51.550;7.060;2023-05-17T05:35:20;14.47;;;7.93;;
6207;SDS011;3137;51.550;7.060;2023-05-17T05:37:56;11.43;;;7.77;;
6207;SDS011;3137;51.550;7.060;2023-05-17T05:40:23;10.00;;;8.03;;
6207;SDS011;3137;51.550;7.060;2023-05-17T05:42:50;17.43;;;8.10;;
6207;SDS011;3137;51.550;7.060;2023-05-17T05:45:18;26.50;;;8.27;;
6207;SDS011;3137;51.550;7.060;2023-05-17T05:47:46;8.80;;;7.07;;
6207;SDS011;3137;51.550;7.060;2023-05-17T05:50:13;12.33;;;6.97;;
6207;SDS011;3137;51.550;7.060;2023-05-17T05:52:42;6.77;;;6.10;;
6207;SDS011;3137;51.550;7.060;2023-05-17T05:55:08;13.90;;;5.57;;
6207;SDS011;3137;51.550;7.060;2023-05-17T05:57:35;12.60;;;5.47;;
6207;SDS011;3137;51.550;7.060;2023-05-17T06:00:02;7.83;;;6.13;;
6207;SDS011;3137;51.550;7.060;2023-05-17T06:02:37;17.50;;;6.67;;
6207;SDS011;3137;51.550;7.060;2023-05-17T06:05:04;18.40;;;6.17;;
6207;SDS011;3137;51.550;7.060;2023-05-17T06:07:31;4.90;;;4.27;;
6207;SDS011;3137;51.550;7.060;2023-05-17T06:09:57;8.57;;;5.20;;
6207;SDS011;3137;51.550;7.060;2023-05-17T06:12:24;11.37;;;5.47;;
6207;SDS011;3137;51.550;7.060;2023-05-17T06:14:50;8.50;;;4.80;;
6207;SDS011;3137;51.550;7.060;2023-05-17T06:17:16;22.80;;;5.90;;
6207;SDS011;3137;51.550;7.060;2023-05-17T06:19:43;6.37;;;4.53;;
6207;SDS011;3137;51.550;7.060;2023-05-17T06:22:10;16.53;;;5.27;;
6207;SDS011;3137;51.550;7.060;2023-05-17T06:24:37;15.50;;;5.37;;
6207;SDS011;3137;51.550;7.060;2023-05-17T06:27:03;14.37;;;5.57;;
6207;SDS011;3137;51.550;7.060;2023-05-17T06:29:30;5.93;;;4.93;;
6207;SDS011;3137;51.550;7.060;2023-05-17T06:31:56;9.07;;;5.40;;
6207;SDS011;3137;51.550;7.060;2023-05-17T06:34:24;14.37;;;6.83;;
6207;SDS011;3137;51.550;7.060;2023-05-17T06:36:51;17.00;;;5.10;;
6207;SDS011;3137;51.550;7.060;2023-05-17T06:39:17;21.07;;;5.57;;
6207;SDS011;3137;51.550;7.060;2023-05-17T06:41:44;11.27;;;5.23;;
6207;SDS011;3137;51.550;7.060;2023-05-17T06:44:15;11.57;;;5.13;;
6207;SDS011;3137;51.550;7.060;2023-05-17T06:46:41;14.17;;;5.90;;
6207;SDS011;3137;51.550;7.060;2023-05-17T06:49:08;5.43;;;4.93;;
6207;SDS011;3137;51.550;7.060;2023-05-17T06:51:34;9.00;;;5.07;;
6207;SDS011;3137;51.550;7.060;2023-05-17T06:54:01;10.43;;;6.00;;
6207;SDS011;3137;51.550;7.060;2023-05-17T06:56:27;10.47;;;5.10;;
6207;SDS011;3137;51.550;7.060;2023-05-17T06:58:54;8.13;;;5.27;;
6207;SDS011;3137;51.550;7.060;2023-05-17T07:01:20;9.07;;;5.30;;
6207;SDS011;3137;51.550;7.060;2023-05-17T07:03:46;5.23;;;4.33;;
6207;SDS011;3137;51.550;7.060;2023-05-17T07:06:13;7.70;;;4.50;;
6207;SDS011;3137;51.550;7.060;2023-05-17T07:08:39;7.43;;;4.87;;
6207;SDS011;3137;51.550;7.060;2023-05-17T07:11:06;13.00;;;4.67;;
6207;SDS011;3137;51.550;7.060;2023-05-17T07:13:32;8.57;;;4.90;;
6207;SDS011;3137;51.550;7.060;2023-05-17T07:15:59;13.70;;;4.43;;
6207;SDS011;3137;51.550;7.060;2023-05-17T07:18:25;8.23;;;3.57;;
6207;SDS011;3137;51.550;7.060;2023-05-17T07:20:52;9.00;;;4.07;;
6207;SDS011;3137;51.550;7.060;2023-05-17T07:23:19;4.50;;;4.13;;
6207;SDS011;3137;51.550;7.060;2023-05-17T07:25:45;9.67;;;2.97;;
6207;SDS011;3137;51.550;7.060;2023-05-17T07:28:11;4.73;;;3.50;;
6207;SDS011;3137;51.550;7.060;2023-05-17T07:30:38;10.10;;;3.67;;
6207;SDS011;3137;51.550;7.060;2023-05-17T07:33:04;3.93;;;3.73;;
6207;SDS011;3137;51.550;7.060;2023-05-17T07:35:31;9.30;;;3.47;;
6207;SDS011;3137;51.550;7.060;2023-05-17T07:37:57;4.60;;;3.23;;
6207;SDS011;3137;51.550;7.060;2023-05-17T07:40:24;4.23;;;2.50;;
6207;SDS011;3137;51.550;7.060;2023-05-17T07:42:51;5.93;;;3.77;;
6207;SDS011;3137;51.550;7.060;2023-05-17T07:45:18;5.40;;;3.33;;
6207;SDS011;3137;51.550;7.060;2023-05-17T07:47:44;13.43;;;3.33;;
6207;SDS011;3137;51.550;7.060;2023-05-17T07:50:11;8.97;;;3.27;;
6207;SDS011;3137;51.550;7.060;2023-05-17T07:52:38;4.43;;;2.53;;
6207;SDS011;3137;51.550;7.060;2023-05-17T07:55:04;6.07;;;3.10;;
6207;SDS011;3137;51.550;7.060;2023-05-17T07:57:31;22.97;;;3.33;;
6207;SDS011;3137;51.550;7.060;2023-05-17T07:59:58;5.20;;;2.73;;
6207;SDS011;3137;51.550;7.060;2023-05-17T08:02:24;11.87;;;2.93;;
6207;SDS011;3137;51.550;7.060;2023-05-17T08:04:51;9.90;;;3.43;;
6207;SDS011;3137;51.550;7.060;2023-05-17T08:07:17;12.60;;;3.33;;
6207;SDS011;3137;51.550;7.060;2023-05-17T08:09:44;3.97;;;3.00;;
6207;SDS011;3137;51.550;7.060;2023-05-17T08:12:10;4.97;;;2.90;;
6207;SDS011;3137;51.550;7.060;2023-05-17T08:14:38;9.40;;;3.23;;
6207;SDS011;3137;51.550;7.060;2023-05-17T08:17:04;4.00;;;2.57;;
6207;SDS011;3137;51.550;7.060;2023-05-17T08:19:31;14.53;;;2.87;;
6207;SDS011;3137;51.550;7.060;2023-05-17T08:21:58;7.60;;;3.50;;
6207;SDS011;3137;51.550;7.060;2023-05-17T08:24:24;7.87;;;3.73;;
6207;SDS011;3137;51.550;7.060;2023-05-17T08:26:51;9.13;;;2.90;;
6207;SDS011;3137;51.550;7.060;2023-05-17T08:29:18;10.03;;;3.43;;
6207;SDS011;3137;51.550;7.060;2023-05-17T08:31:44;5.93;;;3.03;;
6207;SDS011;3137;51.550;7.060;2023-05-17T08:34:11;5.67;;;3.70;;
6207;SDS011;3137;51.550;7.060;2023-05-17T08:36:37;5.07;;;3.50;;
6207;SDS011;3137;51.550;7.060;2023-05-17T08:39:04;6.23;;;3.77;;
6207;SDS011;3137;51.550;7.060;2023-05-17T08:41:30;7.80;;;3.23;;
6207;SDS011;3137;51.550;7.060;2023-05-17T08:43:57;4.97;;;3.33;;
6207;SDS011;3137;51.550;7.060;2023-05-17T08:46:25;5.37;;;3.10;;
6207;SDS011;3137;51.550;7.060;2023-05-17T08:48:53;4.40;;;4.00;;
6207;SDS011;3137;51.550;7.060;2023-05-17T08:51:25;5.47;;;2.87;;
6207;SDS011;3137;51.550;7.060;2023-05-17T08:53:52;5.57;;;3.77;;
6207;SDS011;3137;51.550;7.060;2023-05-17T08:56:19;3.83;;;3.53;;
6207;SDS011;3137;51.550;7.060;2023-05-17T08:58:47;10.60;;;4.63;;
6207;SDS011;3137;51.550;7.060;2023-05-17T09:01:23;6.87;;;3.73;;
6207;SDS011;3137;51.550;7.060;2023-05-17T09:03:52;9.33;;;3.60;;
6207;SDS011;3137;51.550;7.060;2023-05-17T09:06:19;5.23;;;3.60;;
6207;SDS011;3137;51.550;7.060;2023-05-17T09:08:48;3.70;;;3.57;;
6207;SDS011;3137;51.550;7.060;2023-05-17T09:11:24;8.90;;;3.43;;
6207;SDS011;3137;51.550;7.060;2023-05-17T09:13:58;9.77;;;4.30;;
6207;SDS011;3137;51.550;7.060;2023-05-17T09:16:27;8.07;;;4.87;;
6207;SDS011;3137;51.550;7.060;2023-05-17T09:18:58;7.33;;;2.97;;
6207;SDS011;3137;51.550;7.060;2023-05-17T09:21:26;7.93;;;3.73;;
6207;SDS011;3137;51.550;7.060;2023-05-17T09:23:53;7.73;;;3.20;;
6207;SDS011;3137;51.550;7.060;2023-05-17T09:26:38;6.87;;;2.87;;
6207;SDS011;3137;51.550;7.060;2023-05-17T09:29:10;6.80;;;3.17;;
6207;SDS011;3137;51.550;7.060;2023-05-17T09:31:37;7.37;;;3.77;;
6207;SDS011;3137;51.550;7.060;2023-05-17T09:34:05;5.20;;;3.20;;
6207;SDS011;3137;51.550;7.060;2023-05-17T09:36:35;3.43;;;3.17;;
6207;SDS011;3137;51.550;7.060;2023-05-17T09:39:03;3.83;;;3.57;;
6207;SDS011;3137;51.550;7.060;2023-05-17T09:41:31;3.60;;;3.30;;
6207;SDS011;3137;51.550;7.060;2023-05-17T09:44:08;4.67;;;3.40;;
6207;SDS011;3137;51.550;7.060;2023-05-17T09:46:37;9.57;;;3.70;;
6207;SDS011;3137;51.550;7.060;2023-05-17T09:49:07;3.00;;;2.80;;
6207;SDS011;3137;51.550;7.060;2023-05-17T09:51:35;3.20;;;3.00;;
6207;SDS011;3137;51.550;7.060;2023-05-17T09:54:05;9.43;;;3.13;;
6207;SDS011;3137;51.550;7.060;2023-05-17T09:56:32;6.63;;;3.20;;
6207;SDS011;3137;51.550;7.060;2023-05-17T09:59:00;9.00;;;2.77;;
6207;SDS011;3137;51.550;7.060;2023-05-17T10:01:28;5.90;;;2.77;;
6207;SDS011;3137;51.550;7.060;2023-05-17T10:03:59;6.07;;;4.00;;
6207;SDS011;3137;51.550;7.060;2023-05-17T10:06:29;8.47;;;3.63;;
6207;SDS011;3137;51.550;7.060;2023-05-17T10:09:13;6.57;;;3.80;;
6207;SDS011;3137;51.550;7.060;2023-05-17T10:11:42;3.70;;;3.60;;
6207;SDS011;3137;51.550;7.060;2023-05-17T10:14:16;5.37;;;4.10;;
6207;SDS011;3137;51.550;7.060;2023-05-17T10:16:48;4.73;;;3.00;;
6207;SDS011;3137;51.550;7.060;2023-05-17T10:19:16;4.23;;;3.97;;
6207;SDS011;3137;51.550;7.060;2023-05-17T10:21:54;4.03;;;3.53;;
6207;SDS011;3137;51.550;7.060;2023-05-17T10:24:36;7.90;;;3.57;;
6207;SDS011;3137;51.550;7.060;2023-05-17T10:27:04;5.03;;;3.53;;
6207;SDS011;3137;51.550;7.060;2023-05-17T10:29:32;7.87;;;3.47;;
6207;SDS011;3137;51.550;7.060;2023-05-17T10:32:02;2.67;;;2.47;;
6207;SDS011;3137;51.550;7.060;2023-05-17T10:34:33;7.77;;;4.07;;
6207;SDS011;3137;51.550;7.060;2023-05-17T10:37:02;4.07;;;3.80;;
6207;SDS011;3137;51.550;7.060;2023-05-17T10:39:29;3.30;;;3.20;;
6207;SDS011;3137;51.550;7.060;2023-05-17T10:41:59;5.60;;;3.13;;
6207;SDS011;3137;51.550;7.060;2023-05-17T10:44:40;5.67;;;3.57;;
6207;SDS011;3137;51.550;7.060;2023-05-17T10:47:08;7.40;;;2.97;;
6207;SDS011;3137;51.550;7.060;2023-05-17T10:49:37;4.10;;;3.80;;
6207;SDS011;3137;51.550;7.060;2023-05-17T10:52:11;5.07;;;3.80;;
6207;SDS011;3137;51.550;7.060;2023-05-17T10:54:41;6.20;;;3.37;;
6207;SDS011;3137;51.550;7.060;2023-05-17T10:57:18;5.87;;;3.23;;
6207;SDS011;3137;51.550;7.060;2023-05-17T11:00:04;5.37;;;3.60;;
6207;SDS011;3137;51.550;7.060;2023-05-17T11:02:34;8.40;;;3.53;;
6207;SDS011;3137;51.550;7.060;2023-05-17T11:05:05;3.73;;;2.77;;
6207;SDS011;3137;51.550;7.060;2023-05-17T11:07:33;3.70;;;2.93;;
6207;SDS011;3137;51.550;7.060;2023-05-17T11:10:03;3.43;;;2.97;;
6207;SDS011;3137;51.550;7.060;2023-05-17T11:12:40;5.50;;;3.23;;
6207;SDS011;3137;51.550;7.060;2023-05-17T11:15:19;2.93;;;2.77;;
6207;SDS011;3137;51.550;7.060;2023-05-17T11:17:49;6.07;;;3.67;;
6207;SDS011;3137;51.550;7.060;2023-05-17T11:22:55;6.20;;;3.50;;
6207;SDS011;3137;51.550;7.060;2023-05-17T11:25:27;4.87;;;3.57;;
6207;SDS011;3137;51.550;7.060;2023-05-17T11:27:55;9.23;;;3.87;;
6207;SDS011;3137;51.550;7.060;2023-05-17T11:30:30;5.23;;;3.53;;
6207;SDS011;3137;51.550;7.060;2023-05-17T11:35:31;10.30;;;4.17;;
6207;SDS011;3137;51.550;7.060;2023-05-17T11:40:40;3.57;;;3.27;;
6207;SDS011;3137;51.550;7.060;2023-05-17T11:43:14;3.27;;;3.10;;
6207;SDS011;3137;51.550;7.060;2023-05-17T11:45:44;11.83;;;3.77;;
6207;SDS011;3137;51.550;7.060;2023-05-17T11:48:14;7.80;;;3.37;;
6207;SDS011;3137;51.550;7.060;2023-05-17T11:50:42;4.07;;;3.40;;
6207;SDS011;3137;51.550;7.060;2023-05-17T11:53:09;9.33;;;3.97;;
6207;SDS011;3137;51.550;7.060;2023-05-17T11:55:37;3.93;;;3.63;;
6207;SDS011;3137;51.550;7.060;2023-05-17T11:58:08;3.67;;;3.37;;
6207;SDS011;3137;51.550;7.060;2023-05-17T12:00:37;4.30;;;3.90;;
6207;SDS011;3137;51.550;7.060;2023-05-17T12:03:17;5.60;;;3.50;;
6207;SDS011;3137;51.550;7.060;2023-05-17T12:05:45;4.13;;;2.93;;
6207;SDS011;3137;51.550;7.060;2023-05-17T12:08:17;7.67;;;3.07;;
6207;SDS011;3137;51.550;7.060;2023-05-17T12:10:46;4.40;;;3.27;;
6207;SDS011;3137;51.550;7.060;2023-05-17T12:13:14;3.90;;;3.57;;
6207;SDS011;3137;51.550;7.060;2023-05-17T12:15:43;3.20;;;3.00;;
6207;SDS011;3137;51.550;7.060;2023-05-17T12:18:12;7.60;;;3.63;;
6207;SDS011;3137;51.550;7.060;2023-05-17T12:20:51;8.10;;;3.77;;
6207;SDS011;3137;51.550;7.060;2023-05-17T12:23:24;4.90;;;3.70;;
6207;SDS011;3137;51.550;7.060;2023-05-17T12:26:00;5.07;;;3.23;;
6207;SDS011;3137;51.550;7.060;2023-05-17T12:28:27;4.27;;;2.97;;
6207;SDS011;3137;51.550;7.060;2023-05-17T12:30:53;3.07;;;2.87;;
6207;SDS011;3137;51.550;7.060;2023-05-17T12:33:31;3.20;;;2.90;;
6207;SDS011;3137;51.550;7.060;2023-05-17T12:36:01;2.63;;;2.37;;
6207;SDS011;3137;51.550;7.060;2023-05-17T12:38:31;5.70;;;3.30;;
6207;SDS011;3137;51.550;7.060;2023-05-17T12:40:59;4.90;;;3.47;;
6207;SDS011;3137;51.550;7.060;2023-05-17T12:43:28;6.83;;;2.77;;
6207;SDS011;3137;51.550;7.060;2023-05-17T12:46:04;3.90;;;3.60;;
6207;SDS011;3137;51.550;7.060;2023-05-17T12:48:35;3.17;;;3.03;;
6207;SDS011;3137;51.550;7.060;2023-05-17T12:51:13;3.57;;;3.27;;
6207;SDS011;3137;51.550;7.060;2023-05-17T12:53:42;2.70;;;2.60;;
6207;SDS011;3137;51.550;7.060;2023-05-17T12:56:14;16.37;;;3.93;;
6207;SDS011;3137;51.550;7.060;2023-05-17T12:58:42;8.07;;;2.70;;
6207;SDS011;3137;51.550;7.060;2023-05-17T13:01:08;9.97;;;2.97;;
6207;SDS011;3137;51.550;7.060;2023-05-17T13:03:39;7.67;;;2.90;;
6207;SDS011;3137;51.550;7.060;2023-05-17T13:06:07;5.37;;;3.13;;
6207;SDS011;3137;51.550;7.060;2023-05-17T13:08:35;4.33;;;3.93;;
6207;SDS011;3137;51.550;7.060;2023-05-17T13:11:05;3.80;;;3.40;;
6207;SDS011;3137;51.550;7.060;2023-05-17T13:13:32;3.47;;;3.27;;
6207;SDS011;3137;51.550;7.060;2023-05-17T13:15:59;3.47;;;3.17;;
6207;SDS011;3137;51.550;7.060;2023-05-17T13:18:25;9.67;;;3.87;;
6207;SDS011;3137;51.550;7.060;2023-05-17T13:20:52;3.90;;;3.30;;
6207;SDS011;3137;51.550;7.060;2023-05-17T13:23:19;4.23;;;3.70;;
6207;SDS011;3137;51.550;7.060;2023-05-17T13:25:45;4.03;;;3.33;;
6207;SDS011;3137;51.550;7.060;2023-05-17T13:28:12;2.93;;;2.83;;
6207;SDS011;3137;51.550;7.060;2023-05-17T13:30:38;6.80;;;3.60;;
6207;SDS011;3137;51.550;7.060;2023-05-17T13:33:05;3.57;;;3.33;;
6207;SDS011;3137;51.550;7.060;2023-05-17T13:35:32;4.90;;;2.63;;
6207;SDS011;3137;51.550;7.060;2023-05-17T13:37:58;2.67;;;2.67;;
6207;SDS011;3137;51.550;7.060;2023-05-17T13:40:24;2.80;;;2.60;;
6207;SDS011;3137;51.550;7.060;2023-05-17T13:42:51;3.03;;;2.83;;
6207;SDS011;3137;51.550;7.060;2023-05-17T13:45:18;6.50;;;2.77;;
6207;SDS011;3137;51.550;7.060;2023-05-17T13:47:44;9.00;;;3.03;;
6207;SDS011;3137;51.550;7.060;2023-05-17T13:50:11;5.03;;;3.00;;
6207;SDS011;3137;51.550;7.060;2023-05-17T13:52:41;5.47;;;3.10;;
6207;SDS011;3137;51.550;7.060;2023-05-17T13:55:08;10.73;;;3.10;;
6207;SDS011;3137;51.550;7.060;2023-05-17T13:57:35;4.00;;;2.73;;
6207;SDS011;3137;51.550;7.060;2023-05-17T14:00:02;2.40;;;2.40;;
6207;SDS011;3137;51.550;7.060;2023-05-17T14:02:30;3.13;;;3.00;;
6207;SDS011;3137;51.550;7.060;2023-05-17T14:04:56;5.37;;;3.60;;
6207;SDS011;3137;51.550;7.060;2023-05-17T14:07:23;3.80;;;3.63;;
6207;SDS011;3137;51.550;7.060;2023-05-17T14:09:49;5.67;;;3.93;;
6207;SDS011;3137;51.550;7.060;2023-05-17T14:12:16;8.87;;;4.10;;
6207;SDS011;3137;51.550;7.060;2023-05-17T14:14:42;2.77;;;2.60;;
6207;SDS011;3137;51.550;7.060;2023-05-17T14:17:08;3.77;;;3.47;;
6207;SDS011;3137;51.550;7.060;2023-05-17T14:19:35;16.10;;;3.60;;
6207;SDS011;3137;51.550;7.060;2023-05-17T14:22:02;3.10;;;2.90;;
6207;SDS011;3137;51.550;7.060;2023-05-17T14:24:28;3.57;;;3.30;;
6207;SDS011;3137;51.550;7.060;2023-05-17T14:26:55;2.77;;;2.63;;
6207;SDS011;3137;51.550;7.060;2023-05-17T14:29:22;4.00;;;3.03;;
6207;SDS011;3137;51.550;7.060;2023-05-17T14:31:49;5.87;;;2.33;;
6207;SDS011;3137;51.550;7.060;2023-05-17T14:34:15;3.57;;;3.27;;
6207;SDS011;3137;51.550;7.060;2023-05-17T14:36:42;4.97;;;2.70;;
6207;SDS011;3137;51.550;7.060;2023-05-17T14:39:09;3.57;;;3.40;;
6207;SDS011;3137;51.550;7.060;2023-05-17T14:41:35;6.93;;;3.00;;
6207;SDS011;3137;51.550;7.060;2023-05-17T14:44:04;5.87;;;3.47;;
6207;SDS011;3137;51.550;7.060;2023-05-17T14:46:30;7.13;;;4.07;;
6207;SDS011;3137;51.550;7.060;2023-05-17T14:48:57;5.97;;;4.17;;
6207;SDS011;3137;51.550;7.060;2023-05-17T14:51:23;4.00;;;3.67;;
6207;SDS011;3137;51.550;7.060;2023-05-17T14:53:50;3.57;;;3.47;;
6207;SDS011;3137;51.550;7.060;2023-05-17T14:56:17;14.10;;;3.47;;
6207;SDS011;3137;51.550;7.060;2023-05-17T14:58:43;4.13;;;3.77;;
6207;SDS011;3137;51.550;7.060;2023-05-17T15:01:10;8.77;;;3.30;;
6207;SDS011;3137;51.550;7.060;2023-05-17T15:03:37;3.73;;;3.47;;
6207;SDS011;3137;51.550;7.060;2023-05-17T15:06:03;4.73;;;3.20;;
6207;SDS011;3137;51.550;7.060;2023-05-17T15:08:34;3.03;;;2.73;;
6207;SDS011;3137;51.550;7.060;2023-05-17T15:11:01;4.60;;;3.43;;
6207;SDS011;3137;51.550;7.060;2023-05-17T15:13:28;5.80;;;3.30;;
6207;SDS011;3137;51.550;7.060;2023-05-17T15:15:54;4.10;;;3.00;;
6207;SDS011;3137;51.550;7.060;2023-05-17T15:18:21;9.60;;;4.10;;
6207;SDS011;3137;51.550;7.060;2023-05-17T15:20:47;6.43;;;4.07;;
6207;SDS011;3137;51.550;7.060;2023-05-17T15:23:14;3.87;;;3.23;;
6207;SDS011;3137;51.550;7.060;2023-05-17T15:25:41;3.53;;;3.33;;
6207;SDS011;3137;51.550;7.060;2023-05-17T15:28:07;11.80;;;3.60;;
6207;SDS011;3137;51.550;7.060;2023-05-17T15:30:34;13.23;;;4.07;;
6207;SDS011;3137;51.550;7.060;2023-05-17T15:33:00;6.10;;;3.43;;